createdAt,value
2023-05-05T00:02:55.733Z,16
2023-05-05T00:32:56.372Z,15.5
2023-05-05T01:02:57.020Z,15.2
2023-05-05T02:03:08.349Z,14.8
2023-05-05T02:33:08.916Z,14.5
2023-05-05T03:03:19.427Z,14.7
2023-05-05T03:33:19.908Z,14.8
2023-05-05T04:03:20.521Z,14.6
2023-05-05T04:33:20.974Z,14.2
2023-05-05T05:03:22.099Z,14.4
2023-05-05T05:33:22.633Z,14.6
2023-05-05T06:03:23.362Z,14.8
2023-05-05T06:33:23.857Z,15.3
2023-05-05T07:03:24.592Z,15.7
2023-05-05T07:33:25.137Z,16.2
2023-05-05T08:03:36.005Z,16.2
2023-05-05T08:33:36.794Z,16.3
2023-05-05T09:03:47.325Z,17.2
2023-05-05T09:33:47.928Z,18.4
2023-05-05T10:03:49.998Z,20.1
2023-05-05T10:33:50.830Z,21
2023-05-05T11:33:52.456Z,21.9
2023-05-05T12:03:53.388Z,22.4
2023-05-05T12:33:54.179Z,23.6
2023-05-05T13:03:54.745Z,23
2023-05-05T13:33:55.470Z,21.9
2023-05-05T14:03:58.045Z,20.6
2023-05-05T14:33:58.838Z,19.6
2023-05-05T15:04:00.113Z,18.2
2023-05-05T15:34:00.969Z,18.2
2023-05-05T16:04:11.496Z,17.9
2023-05-05T16:34:11.915Z,17.6
2023-05-05T17:04:23.835Z,17.7
2023-05-05T17:34:24.391Z,18.1
2023-05-05T18:04:25.189Z,17.6
2023-05-05T18:34:25.774Z,17.3
2023-05-05T19:04:31.967Z,17
2023-05-05T19:34:35.218Z,16.3
2023-05-05T20:04:35.845Z,16.4
2023-05-05T20:34:36.433Z,16.1
2023-05-05T21:34:47.405Z,15.6
2023-05-05T22:04:48.150Z,15.5
2023-05-05T22:34:58.984Z,15.2
2023-05-05T23:04:59.612Z,14.9
2023-05-05T23:35:10.271Z,14.7
